createdAt,value
2022-11-21T00:00:57.011Z,97237.22
2022-11-21T00:03:05.054Z,97234.31
2022-11-21T00:05:13.788Z,97238.72
2022-11-21T00:07:19.555Z,97228.66
2022-11-21T00:09:30.055Z,97229.63
2022-11-21T00:11:35.822Z,97221.78
2022-11-21T00:13:42.628Z,97206.50
2022-11-21T00:15:50.367Z,97204.53
2022-11-21T00:18:14.416Z,97205.50
2022-11-21T00:20:28.906Z,97196.41
2022-11-21T00:22:41.314Z,97210.75
2022-11-21T00:24:50.494Z,97216.25
2022-11-21T00:26:58.906Z,97203.16
2022-11-21T00:29:24.971Z,97207.16
2022-11-21T00:31:31.538Z,97198.34
2022-11-21T00:33:41.640Z,97200.00
2022-11-21T00:35:51.024Z,97190.22
2022-11-21T00:37:57.043Z,97197.13
2022-11-21T00:40:20.031Z,97192.16
2022-11-21T00:42:26.696Z,97194.91
2022-11-21T00:44:38.805Z,97185.78
2022-11-21T00:46:50.796Z,97185.94
2022-11-21T00:48:57.722Z,97181.69
2022-11-21T00:51:12.597Z,97181.69
2022-11-21T00:53:18.653Z,97177.13
2022-11-21T00:55:37.451Z,97178.50
2022-11-21T00:57:43.406Z,97174.34
2022-11-21T00:59:49.201Z,97172.84
2022-11-21T01:01:56.221Z,97179.28
2022-11-21T01:04:02.693Z,97170.91
2022-11-21T01:06:13.776Z,97172.81
2022-11-21T01:08:20.483Z,97173.50
2022-11-21T01:10:26.195Z,97167.59
2022-11-21T01:12:32.102Z,97160.41
2022-11-21T01:14:38.860Z,97161.78
2022-11-21T01:16:45.371Z,97161.50
2022-11-21T01:18:52.471Z,97154.19
2022-11-21T01:21:03.236Z,97157.75
2022-11-21T01:23:11.799Z,97149.91
2022-11-21T01:25:17.853Z,97147.31
2022-11-21T01:27:26.108Z,97144.03
2022-11-21T01:29:32.168Z,97137.97
2022-11-21T01:31:38.637Z,97142.53
2022-11-21T01:33:46.622Z,97140.59
2022-11-21T01:35:52.374Z,97137.88
2022-11-21T01:37:58.195Z,97136.47
2022-11-21T01:40:08.643Z,97142.25
2022-11-21T01:42:16.785Z,97140.88
2022-11-21T01:44:27.297Z,97143.91
2022-11-21T01:46:40.977Z,97131.94
2022-11-21T01:49:15.974Z,97147.47
2022-11-21T01:51:33.348Z,97146.81
2022-11-21T01:53:45.463Z,97149.16
2022-11-21T01:55:56.671Z,97143.38
2022-11-21T01:58:04.763Z,97143.91
2022-11-21T02:00:22.183Z,97136.75
2022-11-21T02:02:35.970Z,97137.44
2022-11-21T02:04:47.512Z,97138.94
2022-11-21T02:06:55.405Z,97138.66
2022-11-21T02:09:04.545Z,97135.94
2022-11-21T02:11:24.883Z,97140.34
2022-11-21T02:13:31.533Z,97138.69
2022-11-21T02:15:41.602Z,97139.63
2022-11-21T02:17:47.481Z,97134.16
2022-11-21T02:20:01.075Z,97147.38
2022-11-21T02:22:21.557Z,97137.03
2022-11-21T02:24:41.457Z,97134.28
2022-11-21T02:26:52.588Z,97128.19
2022-11-21T02:39:53.048Z,97110.03
2022-11-21T02:44:26.069Z,97113.91
2022-11-21T02:46:34.504Z,97110.19
2022-11-21T02:48:42.081Z,97110.47
2022-11-21T02:50:50.653Z,97111.56
2022-11-21T02:53:00.093Z,97119.41
2022-11-21T02:55:06.126Z,97119.56
2022-11-21T02:57:12.049Z,97105.06
2022-11-21T02:59:21.389Z,97118.84
2022-11-21T03:01:27.329Z,97120.22
2022-11-21T03:03:36.568Z,97113.63
2022-11-21T03:05:44.316Z,97115.81
2022-11-21T03:07:50.632Z,97107.16
2022-11-21T03:09:57.353Z,97101.63
2022-11-21T03:12:09.946Z,97097.78
2022-11-21T03:14:15.907Z,97101.38
2022-11-21T03:16:24.537Z,97109.34
2022-11-21T03:18:31.309Z,97102.75
2022-11-21T03:23:11.423Z,97105.28
2022-11-21T03:25:20.929Z,97106.00
2022-11-21T03:27:38.985Z,97099.16
2022-11-21T03:29:44.795Z,97092.97
2022-11-21T03:32:04.171Z,97087.66
2022-11-21T03:34:20.234Z,97094.03
2022-11-21T03:36:26.162Z,97085.28
2022-11-21T03:38:40.895Z,97089.03
2022-11-21T03:40:46.600Z,97090.94
2022-11-21T03:42:52.291Z,97085.84
2022-11-21T03:44:59.044Z,97082.53
2022-11-21T03:47:04.810Z,97074.25
2022-11-21T03:49:11.807Z,97080.81
2022-11-21T03:51:23.698Z,97079.19
2022-11-21T03:53:29.442Z,97070.00
2022-11-21T03:55:37.860Z,97056.59
2022-11-21T03:57:44.639Z,97054.56
2022-11-21T03:59:50.489Z,97053.81
2022-11-21T04:06:31.579Z,97042.00
2022-11-21T04:08:38.367Z,97043.47
2022-11-21T04:10:50.298Z,97045.13
2022-11-21T04:12:55.998Z,97044.75
2022-11-21T04:15:02.862Z,97041.88
2022-11-21T04:17:08.784Z,97038.34
2022-11-21T04:19:14.840Z,97035.13
2022-11-21T04:21:21.612Z,97027.28
2022-11-21T04:23:31.544Z,97018.47
2022-11-21T04:25:37.758Z,97023.88
2022-11-21T04:27:44.378Z,97020.63
2022-11-21T04:29:50.239Z,97014.16
2022-11-21T04:31:56.134Z,97010.19
2022-11-21T04:34:02.867Z,97024.78
2022-11-21T04:36:17.015Z,97011.16
2022-11-21T07:26:49.542Z,96940.41
2022-11-21T07:28:56.719Z,96940.41
2022-11-21T07:31:13.164Z,96941.75
2022-11-21T07:33:23.786Z,96942.91
2022-11-21T07:35:31.965Z,96936.19
2022-11-21T07:37:42.470Z,96942.81
2022-11-21T07:39:48.227Z,96935.34
2022-11-21T07:41:57.336Z,96936.25
2022-11-21T07:44:10.054Z,96933.69
2022-11-21T07:46:36.327Z,96935.09
2022-11-21T07:48:42.838Z,96941.03
2022-11-21T07:50:48.464Z,96937.44
2022-11-21T07:52:54.110Z,96927.81
2022-11-21T07:55:02.537Z,96917.72
2022-11-21T07:57:10.963Z,96926.25
2022-11-21T07:59:19.416Z,96918.31
2022-11-21T08:01:34.145Z,96911.50
2022-11-21T08:03:39.933Z,96912.47
2022-11-21T08:05:47.727Z,96916.22
2022-11-21T08:07:55.483Z,96918.56
2022-11-21T08:10:01.206Z,96916.09
2022-11-21T08:12:26.485Z,96917.75
2022-11-21T08:14:35.201Z,96911.72
2022-11-21T08:16:56.487Z,96908.41
2022-11-21T08:19:02.840Z,96910.75
2022-11-21T16:19:04.260Z,96855.59
2022-11-21T16:21:18.189Z,96856.22
2022-11-21T16:23:23.909Z,96860.22
2022-11-21T16:25:29.544Z,96851.94
2022-11-21T16:27:36.338Z,96856.81
2022-11-21T16:29:42.032Z,96858.09
2022-11-21T16:31:55.313Z,96850.88
2022-11-21T16:34:16.158Z,96854.63
2022-11-21T16:36:26.747Z,96853.63
2022-11-21T16:38:35.488Z,96852.28
2022-11-21T16:40:42.435Z,96851.56
2022-11-21T16:42:48.047Z,96859.25
2022-11-21T16:44:56.153Z,96846.25
2022-11-21T16:47:09.294Z,96850.25
2022-11-21T16:49:23.766Z,96850.16
2022-11-21T16:51:31.686Z,96849.34
2022-11-21T16:53:38.171Z,96858.41
2022-11-21T16:55:43.952Z,96860.38
2022-11-21T16:57:49.830Z,96859.31
2022-11-21T16:59:59.087Z,96861.75
2022-11-21T17:02:07.831Z,96862.59
2022-11-21T17:04:17.164Z,96869.22
2022-11-21T17:06:31.262Z,96865.66
2022-11-21T17:08:40.803Z,96866.28
2022-11-21T17:10:46.585Z,96856.56
2022-11-21T17:12:53.040Z,96864.75
2022-11-21T17:14:58.678Z,96864.44
2022-11-21T17:17:06.385Z,96872.44
2022-11-21T17:19:16.456Z,96872.75
2022-11-21T17:21:30.376Z,96869.75
2022-11-21T17:23:41.925Z,96873.09
2022-11-21T17:25:48.465Z,96869.47
2022-11-21T17:27:54.249Z,96859.63
2022-11-21T17:30:00.037Z,96873.09
2022-11-21T17:32:09.384Z,96854.03
2022-11-21T17:34:15.661Z,96866.06
2022-11-21T17:36:24.720Z,96850.94
2022-11-21T17:38:31.401Z,96851.63
2022-11-21T17:40:39.777Z,96863.59
2022-11-21T17:42:45.482Z,96869.50
2022-11-21T17:44:52.075Z,96874.28
2022-11-21T17:46:59.465Z,96871.13
2022-11-21T17:49:05.474Z,96874.38
2022-11-21T17:51:16.753Z,96869.47
2022-11-21T17:53:22.576Z,96873.97
2022-11-21T17:55:28.238Z,96856.53
2022-11-21T17:57:37.330Z,96876.56
2022-11-21T17:59:48.910Z,96872.94
2022-11-21T18:01:54.725Z,96867.44
2022-11-21T18:04:05.751Z,96865.56
2022-11-21T18:06:17.748Z,96881.38
2022-11-21T18:08:23.528Z,96887.50
2022-11-21T18:10:43.375Z,96883.94
2022-11-21T18:12:52.121Z,96879.38
2022-11-21T18:14:57.800Z,96883.34
2022-11-21T18:17:04.423Z,96879.91
2022-11-21T18:19:10.666Z,96885.69
2022-11-21T18:21:20.124Z,96873.88
2022-11-21T18:34:57.566Z,96878.84
2022-11-21T18:37:04.439Z,96884.78
2022-11-21T18:39:14.806Z,96873.22
2022-11-21T18:41:24.689Z,96881.59
2022-11-21T18:43:31.423Z,96884.22
2022-11-21T18:45:37.313Z,96884.31
2022-11-21T18:47:43.852Z,96888.44
2022-11-21T18:49:50.634Z,96885.03
2022-11-21T18:51:59.810Z,96899.03
2022-11-21T18:54:10.623Z,96896.06
2022-11-21T18:56:19.176Z,96891.44
2022-11-21T18:58:27.300Z,96900.34
2022-11-21T19:00:33.258Z,96906.34
2022-11-21T19:02:39.989Z,96902.41
2022-11-21T19:04:45.941Z,96905.84
2022-11-21T19:06:51.906Z,96906.50
2022-11-21T19:09:08.520Z,96913.59
2022-11-21T19:11:17.842Z,96910.66
2022-11-21T19:13:24.048Z,96908.13
2022-11-21T19:17:53.953Z,96910.59
2022-11-21T19:22:32.125Z,96907.50
2022-11-21T19:24:40.688Z,96914.25
2022-11-21T19:26:47.169Z,96912.44
2022-11-21T19:29:19.376Z,96916.84
2022-11-21T19:31:25.247Z,96917.13
2022-11-21T19:33:33.517Z,96921.41
2022-11-21T19:35:40.989Z,96925.44
2022-11-21T19:37:47.275Z,96926.59
2022-11-21T19:39:55.781Z,96920.47
2022-11-21T19:42:02.635Z,96920.88
2022-11-21T19:44:08.890Z,96924.97
2022-11-21T19:46:31.314Z,96927.44
2022-11-21T19:48:38.275Z,96928.63
2022-11-21T19:50:49.956Z,96929.25
2022-11-21T19:52:58.304Z,96936.06
2022-11-21T19:55:09.710Z,96932.91
2022-11-21T19:57:16.068Z,96941.72
2022-11-21T19:59:23.110Z,96941.69
2022-11-21T20:01:34.074Z,96941.47
2022-11-21T20:03:43.935Z,96949.09
2022-11-21T20:05:52.342Z,96944.63
2022-11-21T20:08:04.930Z,96939.16
2022-11-21T20:10:17.927Z,96953.88
2022-11-21T20:12:24.460Z,96947.81
2022-11-21T20:14:31.678Z,96958.06
2022-11-21T20:16:41.543Z,96962.84
2022-11-21T20:18:47.881Z,96960.69
2022-11-21T20:20:55.303Z,96959.22
2022-11-21T20:23:01.739Z,96959.69
2022-11-21T20:25:09.368Z,96960.50
2022-11-21T20:27:19.052Z,96961.47
2022-11-21T20:29:25.348Z,96966.44
2022-11-21T20:31:35.291Z,96960.31
2022-11-21T20:33:45.685Z,96961.97
2022-11-21T20:35:51.783Z,96956.19
2022-11-21T20:37:57.998Z,96957.34
2022-11-21T20:40:05.275Z,96951.22
2022-11-21T20:42:11.487Z,96958.63
2022-11-21T20:44:57.059Z,96957.63
2022-11-21T20:46:51.658Z,96957.97
2022-11-21T20:49:01.275Z,96971.66
2022-11-21T20:53:53.156Z,96965.09
2022-11-21T20:56:05.573Z,96959.31
2022-11-21T20:58:12.559Z,96956.03
2022-11-21T21:00:23.077Z,96957.16
2022-11-21T21:02:29.105Z,96952.09
2022-11-21T21:04:35.274Z,96949.47
2022-11-21T21:06:43.737Z,96941.25
2022-11-21T21:08:51.429Z,96943.44
2022-11-21T21:11:16.556Z,96938.97
2022-11-21T21:13:33.753Z,96940.94
2022-11-21T21:15:43.041Z,96948.53
2022-11-21T21:17:51.474Z,96959.25
2022-11-21T21:19:58.758Z,96961.41
2022-11-21T21:22:05.217Z,96960.16
2022-11-21T21:24:15.467Z,96964.66
2022-11-21T21:26:26.421Z,96955.94
2022-11-21T21:28:33.915Z,96959.38
2022-11-21T21:30:45.329Z,96956.41
2022-11-21T21:32:52.295Z,96952.28
2022-11-21T21:34:59.366Z,96948.31
2022-11-21T21:37:06.779Z,96962.34
2022-11-21T21:39:15.188Z,96952.13
2022-11-21T21:41:21.838Z,96949.00
2022-11-21T21:43:27.929Z,96930.13
2022-11-21T21:45:35.648Z,96936.34
2022-11-21T21:47:44.368Z,96932.78
2022-11-21T21:49:50.996Z,96928.50
2022-11-21T21:51:58.010Z,96928.03
2022-11-21T21:54:04.058Z,96923.91
2022-11-21T21:56:11.576Z,96927.22
2022-11-21T21:58:18.431Z,96921.28
2022-11-21T22:00:24.764Z,96926.22
2022-11-21T22:02:30.910Z,96921.13
2022-11-21T22:04:40.559Z,96915.19
2022-11-21T22:06:46.833Z,96920.28
2022-11-21T22:08:54.606Z,96918.22
2022-11-21T22:11:07.669Z,96920.75
2022-11-21T22:13:14.414Z,96913.81
2022-11-21T22:15:20.595Z,96914.09
2022-11-21T22:17:28.172Z,96908.34
2022-11-21T22:19:34.720Z,96914.78
2022-11-21T22:21:43.869Z,96903.34
2022-11-21T22:24:17.778Z,96900.03
2022-11-21T22:26:19.476Z,96898.91
2022-11-21T22:28:25.699Z,96898.09
2022-11-21T22:30:32.691Z,96899.03
2022-11-21T22:32:39.256Z,96901.78
2022-11-21T22:34:45.424Z,96891.09
2022-11-21T22:36:55.067Z,96890.50
2022-11-21T22:39:01.184Z,96892.56
2022-11-21T22:41:10.798Z,96892.19
2022-11-21T22:43:17.768Z,96887.16
2022-11-21T22:45:24.018Z,96879.47
2022-11-21T22:47:30.141Z,96887.56
2022-11-21T22:49:37.020Z,96882.88
2022-11-21T22:51:43.329Z,96873.03
2022-11-21T22:53:53.916Z,96882.16
2022-11-21T22:56:03.879Z,96878.09
2022-11-21T22:58:10.384Z,96878.09
2022-11-21T23:00:19.602Z,96878.47
2022-11-21T23:02:26.784Z,96878.66
2022-11-21T23:04:35.142Z,96871.19
2022-11-21T23:06:41.911Z,96884.22
2022-11-21T23:08:53.126Z,96886.53
2022-11-21T23:11:06.577Z,96876.13
2022-11-21T23:13:12.752Z,96880.72
2022-11-21T23:15:20.279Z,96871.69
2022-11-21T23:17:26.645Z,96877.53
2022-11-21T23:19:32.818Z,96880.84
2022-11-21T23:21:39.861Z,96877.56
2022-11-21T23:23:46.945Z,96875.56
2022-11-21T23:25:56.970Z,96869.78
2022-11-21T23:28:03.981Z,96871.03
2022-11-21T23:30:12.934Z,96879.75
